Time;durP1;ratioP1;P1;durP2;ratioP2;P2;SDS_P1;SDS_P2;PMS_P1;PMS_P2;Temp;Humidity;BMP_temperature;BMP_pressure;BME280_temperature;BME280_humidity;BME280_pressure;Samples;Min_cycle;Max_cycle;Signal;HPM_P1;HPM_P2
2021/12/09 00:01:21;;;;;;;18.93;17.00;;;0.90;99.90;;;;;;5025766;28;21153;-56
2021/12/09 00:03:49;;;;;;;19.63;17.27;;;0.90;99.90;;;;;;5026341;28;20848;-54
2021/12/09 00:06:21;;;;;;;19.63;17.63;;;0.80;99.90;;;;;;5026907;28;20536;-56
2021/12/09 00:08:48;;;;;;;18.13;16.03;;;0.80;99.90;;;;;;5047915;22;20480;-79
2021/12/09 00:11:15;;;;;;;21.20;16.27;;;0.80;99.90;;;;;;5044094;28;20481;-79
2021/12/09 00:13:42;;;;;;;20.60;18.50;;;0.80;99.90;;;;;;5049835;28;20967;-79
2021/12/09 00:16:11;;;;;;;23.10;19.50;;;0.50;99.90;;;;;;5047379;28;20488;-79
2021/12/09 00:18:37;;;;;;;22.03;19.00;;;0.30;99.90;;;;;;5024996;28;20991;-79
2021/12/09 00:21:04;;;;;;;21.10;18.80;;;0.40;99.90;;;;;;5030972;28;21163;-79
2021/12/09 00:23:31;;;;;;;20.50;18.27;;;0.50;99.90;;;;;;5027895;28;20474;-79
2021/12/09 00:25:59;;;;;;;21.27;18.53;;;0.50;99.90;;;;;;5025315;28;20991;-79
2021/12/09 00:28:26;;;;;;;22.50;20.20;;;0.60;99.90;;;;;;5027991;28;20968;-79
2021/12/09 00:30:53;;;;;;;27.30;21.73;;;0.70;99.90;;;;;;5026146;28;20517;-78
2021/12/09 00:33:21;;;;;;;21.97;19.20;;;0.70;99.90;;;;;;5033845;28;20477;-78
2021/12/09 00:35:54;;;;;;;22.73;18.20;;;0.70;99.90;;;;;;5030511;28;20477;-79
2021/12/09 00:38:32;;;;;;;21.60;19.17;;;0.60;99.90;;;;;;5028339;28;20453;-78
2021/12/09 00:41:00;;;;;;;21.13;19.03;;;0.60;99.90;;;;;;5021026;28;20453;-79
2021/12/09 00:43:27;;;;;;;22.70;20.43;;;0.60;99.90;;;;;;5032635;28;20951;-78
2021/12/09 00:45:54;;;;;;;22.20;19.80;;;0.60;99.90;;;;;;5025639;28;20525;-79
2021/12/09 00:48:23;;;;;;;24.77;18.80;;;0.40;99.90;;;;;;5026516;28;20845;-79
2021/12/09 00:50:50;;;;;;;22.67;17.97;;;0.40;99.90;;;;;;5032393;28;20476;-79
2021/12/09 00:53:17;;;;;;;19.73;17.70;;;0.40;99.90;;;;;;5029059;28;20935;-79
2021/12/09 00:55:44;;;;;;;23.87;18.30;;;0.40;99.90;;;;;;5029646;28;20480;-79
2021/12/09 00:58:11;;;;;;;19.40;17.43;;;0.50;99.90;;;;;;5026541;28;20481;-79
2021/12/09 01:00:38;;;;;;;22.33;19.17;;;0.60;99.90;;;;;;5026151;28;20884;-78
2021/12/09 01:03:05;;;;;;;21.67;19.43;;;0.60;99.90;;;;;;5026662;28;20979;-79
2021/12/09 01:05:33;;;;;;;20.77;18.63;;;0.60;99.90;;;;;;5026843;28;20488;-79
2021/12/09 01:08:00;;;;;;;22.40;20.10;;;0.70;99.90;;;;;;5031272;28;20498;-79
2021/12/09 01:10:28;;;;;;;21.30;18.83;;;0.70;99.90;;;;;;5029064;28;20533;-78
2021/12/09 01:12:56;;;;;;;21.07;18.97;;;0.70;99.90;;;;;;5030551;28;21010;-78
2021/12/09 01:15:24;;;;;;;24.00;19.20;;;0.70;99.90;;;;;;5032782;28;20497;-78
2021/12/09 01:17:51;;;;;;;21.17;19.07;;;0.70;99.90;;;;;;5029871;28;20504;-78
2021/12/09 01:20:22;;;;;;;23.30;18.67;;;0.70;99.90;;;;;;5031568;28;20474;-78
2021/12/09 01:22:53;;;;;;;21.03;18.73;;;0.80;99.90;;;;;;5023901;28;20846;-78
2021/12/09 01:25:20;;;;;;;20.30;18.40;;;0.80;99.90;;;;;;5030323;28;20511;-78
2021/12/09 01:27:49;;;;;;;23.10;19.47;;;0.80;99.90;;;;;;5032569;28;20474;-79
2021/12/09 01:30:19;;;;;;;18.67;16.80;;;0.80;99.90;;;;;;5029574;28;20818;-78
2021/12/09 01:32:51;;;;;;;20.47;18.47;;;0.80;99.90;;;;;;5024237;28;20490;-79
2021/12/09 01:35:20;;;;;;;20.87;18.80;;;0.60;99.90;;;;;;5030142;28;20834;-78
2021/12/09 01:37:47;;;;;;;20.40;17.43;;;0.60;99.90;;;;;;5029125;28;20573;-78
2021/12/09 01:40:16;;;;;;;21.87;19.60;;;0.60;99.90;;;;;;5029017;28;20446;-78
2021/12/09 01:42:43;;;;;;;20.13;17.90;;;0.60;99.90;;;;;;5027080;28;20899;-78
2021/12/09 01:45:12;;;;;;;20.63;18.63;;;0.70;99.90;;;;;;5028531;28;20522;-78
2021/12/09 01:47:39;;;;;;;19.80;17.80;;;0.70;99.90;;;;;;5029160;28;20470;-78
2021/12/09 01:50:08;;;;;;;28.30;22.90;;;0.80;99.90;;;;;;5029485;28;20505;-78
2021/12/09 01:52:35;;;;;;;23.07;20.83;;;0.60;99.90;;;;;;5034520;28;20541;-78
2021/12/09 01:55:02;;;;;;;23.27;20.87;;;0.30;99.90;;;;;;5030134;28;20478;-78
2021/12/09 01:57:30;;;;;;;21.43;19.40;;;0.30;99.90;;;;;;5028877;28;20964;-78
2021/12/09 01:59:57;;;;;;;21.40;19.20;;;0.40;99.90;;;;;;5022829;28;20533;-78
2021/12/09 02:02:24;;;;;;;25.37;22.50;;;0.50;99.90;;;;;;5024464;28;20530;-78
2021/12/09 02:04:51;;;;;;;22.23;20.03;;;0.50;99.90;;;;;;5021214;28;20963;-78
2021/12/09 02:07:18;;;;;;;23.63;19.73;;;0.60;99.90;;;;;;5029634;28;20534;-78
2021/12/09 02:09:45;;;;;;;20.80;18.57;;;0.60;99.90;;;;;;5028878;28;20493;-78
2021/12/09 02:12:12;;;;;;;22.60;18.90;;;0.70;99.90;;;;;;5026571;28;20585;-78
2021/12/09 02:14:43;;;;;;;21.00;18.20;;;0.70;99.90;;;;;;5030798;28;20680;-79
2021/12/09 02:17:11;;;;;;;20.60;18.40;;;0.80;99.90;;;;;;5027511;28;20469;-78
2021/12/09 02:19:41;;;;;;;22.73;19.10;;;0.70;99.90;;;;;;5033196;28;20444;-79
2021/12/09 02:22:10;;;;;;;21.43;18.20;;;0.50;99.90;;;;;;5030653;28;20440;-78
2021/12/09 02:24:38;;;;;;;21.23;18.10;;;0.30;99.90;;;;;;5029876;28;20447;-78
2021/12/09 02:27:06;;;;;;;21.17;18.87;;;0.40;99.90;;;;;;5028236;28;20500;-78
2021/12/09 02:29:33;;;;;;;24.67;19.40;;;0.50;99.90;;;;;;5025845;28;20474;-78
2021/12/09 02:32:01;;;;;;;22.73;19.90;;;0.50;99.90;;;;;;5030418;28;20570;-79
2021/12/09 02:34:28;;;;;;;25.50;19.13;;;0.60;99.90;;;;;;5030842;28;20508;-78
2021/12/09 02:36:55;;;;;;;20.73;18.67;;;0.70;99.90;;;;;;5027919;28;20883;-78
2021/12/09 02:39:24;;;;;;;21.80;19.47;;;0.70;99.90;;;;;;5026037;28;20449;-79
2021/12/09 02:41:52;;;;;;;21.50;18.97;;;0.70;99.90;;;;;;5023388;28;20954;-78
2021/12/09 02:44:21;;;;;;;21.27;18.77;;;0.70;99.90;;;;;;5029371;28;20449;-78
2021/12/09 02:46:50;;;;;;;21.37;19.43;;;0.80;99.90;;;;;;5025564;28;20473;-78
2021/12/09 02:49:20;;;;;;;20.10;18.10;;;0.80;99.90;;;;;;5028270;28;20480;-78
2021/12/09 02:51:49;;;;;;;21.80;19.70;;;0.70;99.90;;;;;;5031247;28;20524;-79
2021/12/09 02:54:18;;;;;;;20.17;18.07;;;0.70;99.90;;;;;;5035227;28;20505;-78
2021/12/09 02:56:49;;;;;;;21.53;17.90;;;0.80;99.90;;;;;;5030045;28;21036;-78
2021/12/09 02:59:16;;;;;;;20.93;19.03;;;0.80;99.90;;;;;;5026784;28;20482;-78
2021/12/09 03:01:54;;;;;;;20.47;18.37;;;0.80;99.90;;;;;;5028252;28;20821;-78
2021/12/09 03:04:21;;;;;;;20.57;18.37;;;0.80;99.90;;;;;;5029703;28;20449;-78
2021/12/09 03:06:50;;;;;;;22.20;19.33;;;0.80;99.90;;;;;;5029267;28;20461;-78
2021/12/09 03:09:19;;;;;;;21.57;19.47;;;0.80;99.90;;;;;;5025478;28;20834;-78
2021/12/09 03:11:54;;;;;;;22.93;18.90;;;0.80;99.90;;;;;;5029947;28;20546;-78
2021/12/09 03:14:21;;;;;;;21.57;19.37;;;0.80;99.90;;;;;;5032916;28;20830;-78
2021/12/09 03:16:48;;;;;;;24.87;19.03;;;0.80;99.90;;;;;;5028594;28;20897;-78
2021/12/09 03:19:15;;;;;;;21.77;19.47;;;0.80;99.90;;;;;;5026074;28;20496;-79
2021/12/09 03:21:45;;;;;;;22.50;18.77;;;0.80;99.90;;;;;;5027370;28;20469;-79
2021/12/09 03:24:16;;;;;;;20.83;18.27;;;0.80;99.90;;;;;;5020720;28;20484;-78
2021/12/09 03:26:48;;;;;;;20.83;18.63;;;0.80;99.90;;;;;;5029558;28;20499;-79
2021/12/09 03:29:17;;;;;;;19.87;17.73;;;0.80;99.90;;;;;;5027788;28;20537;-79
2021/12/09 03:31:46;;;;;;;22.53;19.00;;;0.80;99.90;;;;;;5028020;28;21184;-78
2021/12/09 03:34:14;;;;;;;21.00;18.87;;;0.80;99.90;;;;;;5023961;28;20481;-78
2021/12/09 03:36:42;;;;;;;23.87;19.90;;;0.80;99.90;;;;;;5027889;28;20540;-79
2021/12/09 03:39:13;;;;;;;19.70;17.73;;;0.80;99.90;;;;;;5028160;28;20977;-78
2021/12/09 03:41:41;;;;;;;21.37;18.53;;;0.70;99.90;;;;;;5021955;28;20450;-79
2021/12/09 03:44:09;;;;;;;21.27;18.97;;;0.50;99.90;;;;;;5026483;28;20850;-79
2021/12/09 03:46:37;;;;;;;26.23;20.53;;;0.50;99.90;;;;;;5023838;28;20559;-79
2021/12/09 03:49:05;;;;;;;22.03;19.70;;;0.60;99.90;;;;;;5027566;28;20575;-79
2021/12/09 03:51:35;;;;;;;22.70;20.17;;;0.60;99.90;;;;;;5027797;28;20469;-79
2021/12/09 03:54:03;;;;;;;27.77;21.37;;;0.70;99.90;;;;;;5028369;28;20446;-79
2021/12/09 03:56:30;;;;;;;24.17;19.80;;;0.70;99.90;;;;;;5025432;28;20503;-79
2021/12/09 03:58:57;;;;;;;25.13;22.63;;;0.60;99.90;;;;;;5029840;28;20484;-79
2021/12/09 04:01:26;;;;;;;24.10;20.20;;;0.40;99.90;;;;;;5027452;28;20456;-79
2021/12/09 04:03:53;;;;;;;21.80;19.57;;;0.50;99.90;;;;;;5026977;28;20879;-78
2021/12/09 04:06:20;;;;;;;22.63;20.23;;;0.40;99.90;;;;;;5026763;28;21033;-79
2021/12/09 04:08:48;;;;;;;24.57;21.80;;;0.50;99.90;;;;;;5029425;28;20488;-78
2021/12/09 04:11:16;;;;;;;26.30;20.20;;;0.50;99.90;;;;;;5026518;28;20890;-78
2021/12/09 04:13:43;;;;;;;21.47;19.23;;;0.60;99.90;;;;;;5025734;28;21046;-79
2021/12/09 04:16:11;;;;;;;22.33;19.90;;;0.60;99.90;;;;;;5026541;28;20515;-78
2021/12/09 04:18:41;;;;;;;21.50;19.30;;;0.70;99.90;;;;;;5028204;28;20485;-79
2021/12/09 04:21:09;;;;;;;22.53;20.10;;;0.70;99.90;;;;;;5023986;28;20515;-79
2021/12/09 04:23:36;;;;;;;25.87;20.63;;;0.50;99.90;;;;;;5025586;28;20473;-79
2021/12/09 04:26:05;;;;;;;22.10;19.87;;;0.30;99.90;;;;;;5030119;28;20500;-79
2021/12/09 04:28:33;;;;;;;23.20;20.80;;;0.30;99.90;;;;;;5028413;28;20525;-78
2021/12/09 04:31:00;;;;;;;24.23;20.40;;;0.40;99.90;;;;;;5026547;28;20503;-79
2021/12/09 04:33:29;;;;;;;22.70;20.23;;;0.50;99.90;;;;;;5025941;28;20543;-78
2021/12/09 04:35:58;;;;;;;20.97;18.87;;;0.60;99.90;;;;;;5027031;28;20475;-79
2021/12/09 04:38:25;;;;;;;23.60;21.10;;;0.70;99.90;;;;;;5022786;28;20486;-79
2021/12/09 04:40:52;;;;;;;23.00;20.60;;;0.70;99.90;;;;;;5026722;28;20469;-78
2021/12/09 04:43:19;;;;;;;24.50;21.53;;;0.80;99.90;;;;;;5034865;28;20485;-78
2021/12/09 04:45:47;;;;;;;24.20;21.80;;;0.80;99.90;;;;;;5030757;28;20981;-79
2021/12/09 04:48:14;;;;;;;25.33;22.33;;;0.80;99.90;;;;;;5030450;28;20498;-78
2021/12/09 04:50:42;;;;;;;25.20;21.97;;;0.90;99.90;;;;;;5027187;28;20607;-78
2021/12/09 04:53:11;;;;;;;21.37;19.20;;;0.90;99.90;;;;;;5031629;28;20637;-79
2021/12/09 04:55:39;;;;;;;22.93;20.00;;;0.70;99.90;;;;;;5029807;28;21006;-78
2021/12/09 04:58:07;;;;;;;23.50;20.53;;;0.70;99.90;;;;;;5029538;28;20481;-79
2021/12/09 05:00:38;;;;;;;21.43;19.30;;;0.70;99.90;;;;;;5028059;28;20543;-78
2021/12/09 05:03:08;;;;;;;20.83;18.40;;;0.80;99.90;;;;;;5033681;28;20446;-79
2021/12/09 05:05:38;;;;;;;24.90;20.50;;;0.80;99.90;;;;;;5031113;28;20453;-78
2021/12/09 05:08:06;;;;;;;21.83;19.33;;;0.90;99.90;;;;;;5029377;28;20442;-78
2021/12/09 05:10:49;;;;;;;21.70;19.40;;;0.90;99.90;;;;;;5028599;28;20489;-78
2021/12/09 05:13:17;;;;;;;22.73;20.63;;;0.90;99.90;;;;;;5041975;28;20487;-78
2021/12/09 05:15:44;;;;;;;23.23;20.73;;;0.90;99.90;;;;;;5030161;28;20924;-78
2021/12/09 05:18:13;;;;;;;21.37;19.37;;;0.90;99.90;;;;;;5028646;28;20481;-78
2021/12/09 05:20:41;;;;;;;22.57;19.87;;;0.90;99.90;;;;;;5028893;28;20459;-79
2021/12/09 05:23:08;;;;;;;22.70;19.77;;;0.90;99.90;;;;;;5028774;28;20486;-78
2021/12/09 05:25:36;;;;;;;22.97;20.67;;;0.90;99.90;;;;;;5029615;28;20882;-78
2021/12/09 05:28:04;;;;;;;22.13;19.83;;;0.90;99.90;;;;;;5027770;28;20556;-78
2021/12/09 05:30:40;;;;;;;23.17;20.67;;;0.90;99.90;;;;;;5027318;28;20482;-79
2021/12/09 05:33:06;;;;;;;23.17;18.23;;;0.90;99.90;;;;;;5028645;28;20517;-79
2021/12/09 05:35:34;;;;;;;24.97;22.37;;;0.90;99.90;;;;;;5025685;28;20448;-79
2021/12/09 05:38:01;;;;;;;26.37;20.77;;;0.80;99.90;;;;;;5030082;28;20504;-78
2021/12/09 05:40:28;;;;;;;21.07;18.07;;;0.60;99.90;;;;;;5028734;28;20456;-79
2021/12/09 05:42:56;;;;;;;20.50;18.37;;;0.70;99.90;;;;;;5023685;28;20513;-79
2021/12/09 05:45:23;;;;;;;22.67;20.40;;;0.70;99.90;;;;;;5026994;28;20489;-78
2021/12/09 05:47:51;;;;;;;20.37;18.23;;;0.70;99.90;;;;;;5023937;28;20565;-78
2021/12/09 05:50:18;;;;;;;22.60;20.07;;;0.80;99.90;;;;;;5026658;28;20491;-78
2021/12/09 05:52:45;;;;;;;21.73;19.47;;;0.80;99.90;;;;;;5028179;28;20536;-79
2021/12/09 05:55:12;;;;;;;24.33;21.73;;;0.80;99.90;;;;;;5029560;28;20861;-78
2021/12/09 05:57:39;;;;;;;24.60;22.23;;;0.80;99.90;;;;;;5028531;28;20580;-78
2021/12/09 06:00:09;;;;;;;33.47;28.23;;;0.40;99.90;;;;;;5024437;28;20536;-78
2021/12/09 06:02:36;;;;;;;26.50;23.67;;;0.30;99.90;;;;;;5029742;28;20448;-78
2021/12/09 06:05:04;;;;;;;31.20;25.67;;;0.40;99.90;;;;;;5029313;28;20460;-78
2021/12/09 06:07:31;;;;;;;31.77;26.77;;;0.50;99.90;;;;;;5029088;28;20562;-78
2021/12/09 06:10:00;;;;;;;31.80;26.23;;;0.60;99.90;;;;;;5028199;28;20536;-79
2021/12/09 06:12:27;;;;;;;33.13;27.23;;;0.70;99.90;;;;;;5043062;22;20525;-47
2021/12/09 06:14:54;;;;;;;28.30;24.43;;;0.70;99.90;;;;;;5027750;28;20613;-46
2021/12/09 06:17:23;;;;;;;29.07;25.23;;;0.70;99.90;;;;;;5028098;28;20512;-48
2021/12/09 06:19:50;;;;;;;28.77;24.83;;;0.80;99.90;;;;;;5026995;28;20563;-49
2021/12/09 06:22:17;;;;;;;30.90;26.40;;;0.80;99.90;;;;;;5025887;28;20546;-50
2021/12/09 06:24:45;;;;;;;34.60;27.40;;;0.80;99.90;;;;;;5101252;22;20523;-54
2021/12/09 06:27:13;;;;;;;28.77;25.07;;;0.80;99.90;;;;;;5035259;28;20455;-54
2021/12/09 06:29:40;;;;;;;27.27;24.23;;;0.80;99.90;;;;;;5035604;28;20447;-55
2021/12/09 06:32:09;;;;;;;30.27;25.20;;;0.80;99.90;;;;;;5033312;28;20506;-54
2021/12/09 06:34:37;;;;;;;27.53;23.23;;;0.90;99.90;;;;;;5027332;28;20521;-54
2021/12/09 06:37:04;;;;;;;24.73;22.03;;;0.90;99.90;;;;;;5008695;28;21107;-54
2021/12/09 06:39:32;;;;;;;26.53;21.57;;;0.90;99.90;;;;;;5019460;28;20707;-55
2021/12/09 06:41:59;;;;;;;27.67;21.07;;;0.90;99.90;;;;;;5014916;28;20481;-54
2021/12/09 06:44:26;;;;;;;23.47;20.87;;;1.00;99.90;;;;;;5012399;28;20523;-54
2021/12/09 06:46:55;;;;;;;22.30;19.97;;;1.00;99.90;;;;;;5014088;28;20473;-55
2021/12/09 06:49:23;;;;;;;27.30;24.50;;;1.00;99.90;;;;;;5014956;28;20480;-54
2021/12/09 06:51:52;;;;;;;25.87;23.03;;;1.00;99.90;;;;;;5010718;28;20947;-55
2021/12/09 06:54:19;;;;;;;24.37;21.87;;;1.00;99.90;;;;;;5009653;28;20528;-54
2021/12/09 06:56:46;;;;;;;27.67;24.70;;;1.00;99.90;;;;;;5017151;28;20887;-54
2021/12/09 06:59:13;;;;;;;27.43;24.37;;;1.00;99.90;;;;;;5013286;28;20861;-54
2021/12/09 07:01:40;;;;;;;28.80;25.80;;;1.00;99.90;;;;;;5013379;28;20492;-54
2021/12/09 07:04:08;;;;;;;30.33;27.13;;;1.00;99.90;;;;;;5015678;28;20503;-55
2021/12/09 07:06:35;;;;;;;28.03;23.83;;;1.00;99.90;;;;;;5012729;28;20459;-54
2021/12/09 07:09:04;;;;;;;30.70;25.10;;;0.70;99.90;;;;;;5013044;28;20504;-54
2021/12/09 07:11:32;;;;;;;29.60;26.13;;;0.40;99.90;;;;;;5014039;28;20454;-55
2021/12/09 07:13:59;;;;;;;30.80;27.60;;;0.40;99.90;;;;;;5006791;28;20513;-54
2021/12/09 07:16:26;;;;;;;31.20;27.70;;;0.50;99.90;;;;;;5016044;28;20487;-54
2021/12/09 07:18:53;;;;;;;29.83;25.20;;;0.60;99.90;;;;;;5015734;28;20502;-54
2021/12/09 07:21:20;;;;;;;29.33;26.17;;;0.70;99.90;;;;;;5016115;28;20481;-55
2021/12/09 07:23:49;;;;;;;33.37;27.93;;;0.80;99.90;;;;;;5017874;28;20983;-54
2021/12/09 07:26:17;;;;;;;33.93;29.57;;;0.80;99.90;;;;;;5013770;28;20473;-54
2021/12/09 07:28:44;;;;;;;32.87;27.30;;;0.70;99.90;;;;;;5013129;28;20481;-54
2021/12/09 07:31:11;;;;;;;27.47;24.20;;;0.70;99.90;;;;;;5006025;28;20490;-54
2021/12/09 07:33:38;;;;;;;29.60;25.50;;;0.80;99.90;;;;;;5012570;28;20536;-54
2021/12/09 07:36:05;;;;;;;27.93;25.10;;;0.80;99.90;;;;;;5012077;28;20507;-54
2021/12/09 07:38:32;;;;;;;29.90;26.10;;;0.80;99.90;;;;;;5013624;28;20512;-55
2021/12/09 07:40:59;;;;;;;28.23;25.43;;;0.90;99.90;;;;;;5006183;28;20466;-54
2021/12/09 07:43:28;;;;;;;28.00;25.00;;;0.90;99.90;;;;;;5014732;28;20470;-55
2021/12/09 07:45:55;;;;;;;38.63;27.00;;;0.90;99.90;;;;;;5013947;28;20509;-54
2021/12/09 07:48:21;;;;;;;28.33;24.47;;;0.90;99.90;;;;;;5012152;28;20488;-54
2021/12/09 07:50:49;;;;;;;31.33;26.50;;;0.90;99.90;;;;;;5012840;28;20477;-55
2021/12/09 07:53:17;;;;;;;28.17;23.73;;;0.90;99.90;;;;;;5012642;28;20553;-54
2021/12/09 07:55:44;;;;;;;32.17;25.67;;;1.00;99.90;;;;;;5012385;28;20986;-54
2021/12/09 07:58:11;;;;;;;30.20;26.90;;;1.00;99.90;;;;;;5014236;28;20476;-54
2021/12/09 08:00:40;;;;;;;29.83;25.87;;;1.00;99.90;;;;;;5015997;28;20999;-54
2021/12/09 08:03:07;;;;;;;30.50;27.30;;;1.00;99.90;;;;;;5014639;28;20534;-54
2021/12/09 08:05:38;;;;;;;30.50;27.50;;;1.00;99.90;;;;;;5013973;28;20508;-54
2021/12/09 08:08:07;;;;;;;31.90;27.30;;;1.00;99.90;;;;;;5014375;28;20477;-54
2021/12/09 08:10:35;;;;;;;29.67;25.13;;;1.00;99.90;;;;;;5012062;28;20516;-54
2021/12/09 08:13:02;;;;;;;27.07;24.13;;;1.10;99.90;;;;;;5011625;28;20496;-55
2021/12/09 08:15:33;;;;;;;28.50;24.67;;;1.10;99.90;;;;;;5013122;28;20502;-54
2021/12/09 08:18:14;;;;;;;33.33;28.00;;;1.10;99.90;;;;;;5009948;28;20477;-54
2021/12/09 08:20:42;;;;;;;33.00;28.00;;;1.10;99.90;;;;;;5014327;28;20512;-54
2021/12/09 08:23:09;;;;;;;32.30;27.47;;;1.10;99.90;;;;;;5015700;28;20521;-54
2021/12/09 08:25:36;;;;;;;29.17;26.10;;;1.10;99.90;;;;;;5017120;28;20501;-54
2021/12/09 08:28:03;;;;;;;31.60;26.93;;;1.10;99.90;;;;;;5011302;28;20952;-54
2021/12/09 08:30:30;;;;;;;32.20;27.43;;;1.10;99.90;;;;;;5015526;28;20473;-55
2021/12/09 08:32:57;;;;;;;35.03;30.00;;;1.10;99.90;;;;;;5010284;28;20539;-55
2021/12/09 08:35:26;;;;;;;32.23;27.90;;;1.10;99.90;;;;;;5016984;28;20536;-54
2021/12/09 08:37:56;;;;;;;30.43;26.00;;;1.10;99.90;;;;;;5016954;28;20838;-54
2021/12/09 08:40:23;;;;;;;34.47;29.70;;;1.10;99.90;;;;;;5015755;28;20449;-55
2021/12/09 08:42:50;;;;;;;39.70;31.13;;;1.10;99.90;;;;;;5015414;28;20447;-53
2021/12/09 08:45:19;;;;;;;34.43;30.53;;;1.10;99.90;;;;;;5016353;28;20459;-54
2021/12/09 08:47:46;;;;;;;37.67;30.60;;;1.10;99.90;;;;;;5019601;28;20493;-54
2021/12/09 08:50:16;;;;;;;36.97;30.37;;;1.10;99.90;;;;;;5017932;28;20475;-59
2021/12/09 08:52:44;;;;;;;40.10;31.30;;;1.20;99.90;;;;;;5016092;28;20477;-55
2021/12/09 08:55:11;;;;;;;38.70;31.40;;;1.20;99.90;;;;;;5009379;28;21052;-55
2021/12/09 08:57:39;;;;;;;32.63;28.60;;;1.20;99.90;;;;;;5016188;28;20547;-54
2021/12/09 09:00:09;;;;;;;34.63;30.63;;;1.20;99.90;;;;;;5016188;28;20960;-54
2021/12/09 09:02:40;;;;;;;38.33;31.87;;;1.20;99.90;;;;;;5017149;28;20477;-55
2021/12/09 09:05:08;;;;;;;35.00;28.30;;;1.20;99.90;;;;;;5016621;28;20491;-54
2021/12/09 09:07:35;;;;;;;34.73;30.50;;;1.20;99.90;;;;;;5015813;28;20469;-57
2021/12/09 09:10:04;;;;;;;34.80;30.97;;;1.20;99.90;;;;;;5020881;28;20481;-54
2021/12/09 09:12:33;;;;;;;34.93;29.67;;;1.10;99.90;;;;;;5017632;28;20490;-54
2021/12/09 09:15:00;;;;;;;37.23;31.80;;;1.00;99.90;;;;;;5015184;28;20486;-53
2021/12/09 09:17:27;;;;;;;32.43;28.53;;;1.10;99.90;;;;;;5015581;28;20450;-54
2021/12/09 09:19:54;;;;;;;31.70;28.27;;;1.10;99.90;;;;;;5017919;28;20492;-54
2021/12/09 09:22:21;;;;;;;29.07;25.77;;;1.10;99.90;;;;;;5019572;28;20562;-55
2021/12/09 09:24:48;;;;;;;31.17;27.90;;;1.20;99.90;;;;;;5012884;28;20516;-54
2021/12/09 09:27:17;;;;;;;30.00;25.33;;;1.20;99.90;;;;;;5014368;28;20490;-54
2021/12/09 09:29:44;;;;;;;32.47;28.23;;;1.30;99.90;;;;;;5018206;28;20602;-54
2021/12/09 09:32:12;;;;;;;30.37;27.03;;;1.30;99.90;;;;;;5015616;28;20478;-55
2021/12/09 09:34:40;;;;;;;39.70;33.47;;;1.30;99.90;;;;;;5016928;28;21059;-54
2021/12/09 09:37:07;;;;;;;34.07;30.47;;;1.30;99.90;;;;;;5015406;28;20530;-55
2021/12/09 09:39:34;;;;;;;33.13;29.73;;;1.30;99.90;;;;;;5016872;28;20454;-54
2021/12/09 09:42:20;;;;;;;33.60;26.87;;;1.30;99.90;;;;;;5009463;28;20490;-54
2021/12/09 09:44:55;;;;;;;29.03;24.33;;;1.30;99.90;;;;;;5013181;28;20517;-54
2021/12/09 09:47:23;;;;;;;30.83;24.27;;;1.30;99.90;;;;;;5009858;28;20496;-54
2021/12/09 09:49:51;;;;;;;32.57;26.37;;;1.30;99.90;;;;;;5016528;28;20496;-54
2021/12/09 09:52:19;;;;;;;28.00;24.60;;;1.30;99.90;;;;;;5011189;28;20485;-55
2021/12/09 09:54:46;;;;;;;28.60;24.77;;;1.40;99.90;;;;;;5014669;28;20529;-55
2021/12/09 09:57:14;;;;;;;26.87;22.80;;;1.40;99.90;;;;;;5014362;28;20475;-54
2021/12/09 09:59:42;;;;;;;29.10;25.97;;;1.40;99.90;;;;;;5014545;28;21085;-54
2021/12/09 10:02:13;;;;;;;31.70;26.67;;;1.40;99.90;;;;;;5014378;28;20514;-54
2021/12/09 10:04:47;;;;;;;27.27;24.37;;;1.40;99.90;;;;;;5014471;28;20494;-54
2021/12/09 10:07:19;;;;;;;27.00;23.53;;;1.40;99.90;;;;;;5016369;28;20526;-54
2021/12/09 10:09:47;;;;;;;30.30;27.00;;;1.40;99.90;;;;;;5012286;28;20538;-54
2021/12/09 10:12:15;;;;;;;29.57;26.37;;;1.40;99.90;;;;;;5017049;28;20473;-53
2021/12/09 10:14:47;;;;;;;27.83;24.90;;;1.40;99.90;;;;;;5015466;28;20553;-54
2021/12/09 10:17:17;;;;;;;29.43;26.03;;;1.30;99.90;;;;;;5016418;28;20969;-55
2021/12/09 10:19:51;;;;;;;29.40;25.47;;;1.40;99.90;;;;;;5014526;28;21177;-54
2021/12/09 10:22:21;;;;;;;28.30;25.23;;;1.40;99.90;;;;;;5013154;28;20449;-54
2021/12/09 10:24:50;;;;;;;29.97;26.77;;;1.40;99.90;;;;;;5013579;28;20466;-54
2021/12/09 10:27:24;;;;;;;31.10;25.70;;;1.40;99.90;;;;;;5016960;28;20478;-54
2021/12/09 10:29:55;;;;;;;28.23;25.27;;;1.20;99.90;;;;;;5012110;28;20876;-54
2021/12/09 10:32:28;;;;;;;31.60;25.60;;;1.30;99.90;;;;;;5013594;28;20443;-55
2021/12/09 10:34:56;;;;;;;32.43;28.33;;;1.30;99.90;;;;;;5013901;28;20482;-54
2021/12/09 10:37:24;;;;;;;33.93;27.10;;;1.30;99.90;;;;;;5013217;28;20475;-55
2021/12/09 10:39:53;;;;;;;41.40;34.17;;;1.40;99.90;;;;;;5026227;28;20485;-54
2021/12/09 10:42:24;;;;;;;45.17;37.20;;;1.40;99.90;;;;;;5014459;28;20482;-54
2021/12/09 10:44:55;;;;;;;38.07;33.93;;;1.40;99.90;;;;;;5017773;28;20466;-54
2021/12/09 10:47:48;;;;;;;40.57;33.50;;;1.40;99.90;;;;;;5016390;28;20483;-54
2021/12/09 10:50:24;;;;;;;37.30;32.37;;;1.40;99.90;;;;;;5015478;28;20520;-54
2021/12/09 10:52:56;;;;;;;37.60;32.10;;;1.40;99.90;;;;;;5006892;28;20465;-54
2021/12/09 10:55:27;;;;;;;39.00;31.77;;;1.40;99.90;;;;;;5015043;28;20490;-55
2021/12/09 10:58:07;;;;;;;37.43;30.83;;;1.50;99.90;;;;;;5015324;28;20467;-54
2021/12/09 11:00:39;;;;;;;25.27;22.67;;;1.50;99.90;;;;;;5013668;28;20457;-54
2021/12/09 11:03:15;;;;;;;28.90;25.80;;;1.50;99.90;;;;;;5021346;28;20944;-54
2021/12/09 11:05:45;;;;;;;34.77;27.30;;;1.50;99.90;;;;;;5012844;28;20488;-54
2021/12/09 11:08:30;;;;;;;37.30;29.60;;;1.50;99.90;;;;;;5012748;28;20439;-53
2021/12/09 11:11:01;;;;;;;38.17;32.70;;;1.60;99.90;;;;;;5014942;28;20447;-54
2021/12/09 11:13:46;;;;;;;34.47;30.10;;;1.60;99.90;;;;;;5017305;28;20494;-54
2021/12/09 11:16:22;;;;;;;32.57;29.17;;;1.60;99.90;;;;;;5014695;28;20539;-54
2021/12/09 11:18:52;;;;;;;31.10;27.33;;;1.60;99.90;;;;;;5020145;28;20485;-55
2021/12/09 11:21:21;;;;;;;32.80;29.13;;;1.60;99.90;;;;;;5017297;28;20478;-55
2021/12/09 11:23:52;;;;;;;29.97;24.53;;;1.60;99.90;;;;;;5013924;28;20450;-55
2021/12/09 11:26:25;;;;;;;31.57;25.70;;;1.70;99.90;;;;;;5011091;28;20470;-54
2021/12/09 11:28:57;;;;;;;28.83;25.73;;;1.70;99.90;;;;;;5016397;28;20478;-55
2021/12/09 11:31:28;;;;;;;27.90;24.67;;;1.70;99.90;;;;;;5016583;28;20470;-55
2021/12/09 11:34:06;;;;;;;35.40;30.83;;;1.70;99.90;;;;;;5007503;28;20479;-55
2021/12/09 11:36:45;;;;;;;29.83;26.70;;;1.70;99.90;;;;;;5011867;28;20941;-55
2021/12/09 11:39:19;;;;;;;29.90;25.77;;;1.70;99.90;;;;;;5015176;28;20509;-55
2021/12/09 11:41:48;;;;;;;29.60;25.20;;;1.70;99.90;;;;;;5012309;28;20450;-55
2021/12/09 11:44:15;;;;;;;26.27;22.83;;;1.70;99.90;;;;;;5011436;28;20454;-55
2021/12/09 11:46:44;;;;;;;26.97;22.87;;;1.80;99.90;;;;;;5011088;28;20443;-54
2021/12/09 11:49:12;;;;;;;29.47;25.27;;;1.80;99.90;;;;;;5011873;28;20470;-55
2021/12/09 11:51:40;;;;;;;30.63;24.57;;;1.80;99.90;;;;;;5013768;28;20528;-55
2021/12/09 11:54:10;;;;;;;28.03;22.03;;;1.80;99.90;;;;;;5014129;28;21002;-55
2021/12/09 11:56:46;;;;;;;29.73;25.43;;;1.80;99.90;;;;;;5011340;28;20534;-54
2021/12/09 12:11:08;;;;;;;29.37;25.00;;;1.90;99.90;;;;;;5010397;28;20504;-54
2021/12/09 12:11:18;;;;;;;27.87;24.83;;;1.90;99.90;;;;;;5013033;28;20438;-55
2021/12/09 12:13:50;;;;;;;32.83;25.93;;;2.00;99.90;;;;;;5012965;28;20450;-55
2021/12/09 12:16:44;;;;;;;29.67;26.47;;;2.00;99.90;;;;;;5016649;28;20501;-54
2021/12/09 12:19:18;;;;;;;27.87;24.57;;;1.90;99.90;;;;;;5014945;28;20920;-54
2021/12/09 12:22:11;;;;;;;28.73;22.50;;;1.90;99.90;;;;;;5013083;28;20446;-59
2021/12/09 12:27:40;;;;;;;34.00;28.00;;;1.80;99.90;;;;;;5024094;28;20610;-78
2021/12/09 12:33:18;;;;;;;30.07;24.90;;;1.80;99.90;;;;;;4989638;28;20478;-78
2021/12/09 12:36:03;;;;;;;27.10;23.20;;;1.90;99.90;;;;;;5023201;28;20848;-78
2021/12/09 12:38:50;;;;;;;27.30;22.97;;;1.90;99.90;;;;;;5023025;28;21184;-78
2021/12/09 12:41:19;;;;;;;32.63;27.97;;;1.90;99.90;;;;;;5022889;28;20955;-78
2021/12/09 12:43:54;;;;;;;39.47;32.60;;;1.90;99.90;;;;;;5028387;28;20454;-78
2021/12/09 12:46:47;;;;;;;35.53;30.00;;;1.70;99.90;;;;;;5021802;28;20468;-79
2021/12/09 12:49:27;;;;;;;29.53;25.77;;;1.70;99.90;;;;;;5028124;28;20457;-79
2021/12/09 12:51:58;;;;;;;36.60;27.40;;;1.70;99.90;;;;;;5019813;28;20483;-79
2021/12/09 12:54:39;;;;;;;28.73;25.70;;;1.80;99.90;;;;;;5028515;28;20899;-79
2021/12/09 12:57:14;;;;;;;29.87;24.73;;;1.80;99.90;;;;;;5026115;28;20442;-79
2021/12/09 12:59:44;;;;;;;26.90;24.03;;;1.80;99.90;;;;;;5017133;28;20674;-79
2021/12/09 13:05:37;;;;;;;30.33;24.27;;;1.70;99.90;;;;;;5027383;28;20426;-79